Time;durP1;ratioP1;P1;durP2;ratioP2;P2;SDS_P1;SDS_P2;PMS_P1;PMS_P2;Temp;Humidity;BMP_temperature;BMP_pressure;BME280_temperature;BME280_humidity;BME280_pressure;Samples;Min_cycle;Max_cycle;Signal;HPM_P1;HPM_P2
2023/10/16 00:00:49;;;;;;;;;;;22.90;76.30;;;;;;5113140;28;19922;-74
2023/10/16 00:03:17;;;;;;;;;;;22.90;75.90;;;;;;5114461;28;19920;-71
2023/10/16 00:05:49;;;;;;;;;;;22.90;75.40;;;;;;5114966;28;20324;-72
2023/10/16 00:08:16;;;;;;;;;;;22.90;77.20;;;;;;5114609;28;19912;-71
2023/10/16 00:10:55;;;;;;;;;;;22.90;76.20;;;;;;5113845;28;19964;-77
2023/10/16 00:13:28;;;;;;;;;;;22.80;76.50;;;;;;5112857;28;19916;-72
2023/10/16 00:16:04;;;;;;;;;;;22.90;76.70;;;;;;5111379;28;19965;-74
2023/10/16 00:18:34;;;;;;;;;;;23.00;76.40;;;;;;5104144;28;19920;-76
2023/10/16 00:21:04;;;;;;;;;;;23.10;76.10;;;;;;5105369;28;19915;-75
2023/10/16 00:23:37;;;;;;;;;;;23.10;75.80;;;;;;5111775;28;19916;-72
2023/10/16 00:26:08;;;;;;;;;;;23.20;75.20;;;;;;5109677;28;19919;-70
2023/10/16 00:28:35;;;;;;;;;;;23.30;75.00;;;;;;5114143;28;19908;-73
2023/10/16 00:31:02;;;;;;;;;;;23.50;73.80;;;;;;5113212;28;19915;-68
2023/10/16 00:33:31;;;;;;;;;;;23.60;74.10;;;;;;5103057;28;19912;-74
2023/10/16 00:36:00;;;;;;;;;;;23.70;73.80;;;;;;5100407;28;20411;-72
2023/10/16 00:38:26;;;;;;;;;;;23.70;74.00;;;;;;5102406;28;20061;-76
2023/10/16 00:41:10;;;;;;;;;;;23.60;73.20;;;;;;5098725;28;19958;-74
2023/10/16 00:43:36;;;;;;;;;;;23.70;73.40;;;;;;5094048;28;20354;-72
2023/10/16 00:46:06;;;;;;;;;;;23.90;73.10;;;;;;5103568;28;20409;-72
2023/10/16 00:48:34;;;;;;;;;;;24.20;73.80;;;;;;5097459;28;20010;-73
2023/10/16 00:51:09;;;;;;;;;;;24.50;72.50;;;;;;5096723;28;19935;-77
2023/10/16 00:53:39;;;;;;;;;;;24.60;72.20;;;;;;5105639;28;19969;-72
2023/10/16 00:56:14;;;;;;;;;;;24.80;70.90;;;;;;5110405;28;19920;-74
2023/10/16 00:58:50;;;;;;;;;;;24.90;71.10;;;;;;5110849;28;19994;-76
2023/10/16 01:01:18;;;;;;;;;;;25.10;70.20;;;;;;5112890;28;20010;-73
2023/10/16 01:03:48;;;;;;;;;;;25.20;70.30;;;;;;5113015;28;19961;-76
2023/10/16 01:06:25;;;;;;;;;;;25.30;69.80;;;;;;5099761;28;20364;-76
2023/10/16 01:08:52;;;;;;;;;;;25.30;69.60;;;;;;5105917;28;19998;-77
2023/10/16 01:11:19;;;;;;;;;;;25.30;69.80;;;;;;5104463;28;19958;-72
2023/10/16 01:13:50;;;;;;;;;;;25.10;70.20;;;;;;5112685;28;19919;-74
2023/10/16 01:16:18;;;;;;;;;;;25.10;70.40;;;;;;5112452;28;20002;-78
2023/10/16 01:18:45;;;;;;;;;;;25.30;69.70;;;;;;5110280;28;19919;-73
2023/10/16 01:21:15;;;;;;;;;;;25.30;68.80;;;;;;5111902;28;19953;-72
2023/10/16 01:23:44;;;;;;;;;;;25.20;69.30;;;;;;5111695;28;20443;-68
2023/10/16 01:26:13;;;;;;;;;;;25.10;67.30;;;;;;5112008;28;20536;-71
2023/10/16 01:28:40;;;;;;;;;;;25.10;67.40;;;;;;5103758;28;19961;-67
2023/10/16 01:31:07;;;;;;;;;;;25.50;67.10;;;;;;5112243;28;19911;-68
2023/10/16 01:33:34;;;;;;;;;;;25.80;66.30;;;;;;5110550;28;19923;-73
2023/10/16 01:36:00;;;;;;;;;;;26.10;65.20;;;;;;5111059;28;19915;-67
2023/10/16 01:38:27;;;;;;;;;;;26.40;65.30;;;;;;5102554;28;19916;-73
2023/10/16 01:43:31;;;;;;;;;;;26.40;64.40;;;;;;5104013;28;20010;-75
2023/10/16 01:46:00;;;;;;;;;;;26.30;64.30;;;;;;5101618;28;19944;-76
2023/10/16 01:48:30;;;;;;;;;;;26.20;64.20;;;;;;5105518;28;19927;-77
2023/10/16 01:50:57;;;;;;;;;;;26.20;64.70;;;;;;5112216;28;19999;-73
2023/10/16 01:53:32;;;;;;;;;;;26.50;64.20;;;;;;5094775;28;19912;-69
2023/10/16 01:56:02;;;;;;;;;;;26.90;64.00;;;;;;5091464;28;20265;-74
2023/10/16 01:58:32;;;;;;;;;;;27.50;63.70;;;;;;5101814;28;20300;-70
2023/10/16 02:00:58;;;;;;;;;;;27.80;62.90;;;;;;5112295;28;19974;-68
2023/10/16 02:03:26;;;;;;;;;;;27.90;62.20;;;;;;5112317;28;19915;-69
2023/10/16 02:05:53;;;;;;;;;;;27.90;61.50;;;;;;5111383;28;20015;-75
2023/10/16 02:08:20;;;;;;;;;;;27.60;61.30;;;;;;5111527;28;19908;-71
2023/10/16 02:10:48;;;;;;;;;;;27.60;61.60;;;;;;5112506;28;19954;-72
2023/10/16 02:13:15;;;;;;;;;;;27.30;61.30;;;;;;5111355;28;19912;-69
2023/10/16 02:15:42;;;;;;;;;;;27.20;61.10;;;;;;5093143;28;20329;-73
2023/10/16 02:18:27;;;;;;;;;;;27.10;61.20;;;;;;5108266;28;20392;-69
2023/10/16 02:20:53;;;;;;;;;;;26.50;62.10;;;;;;5094885;28;20006;-68
2023/10/16 02:23:20;;;;;;;;;;;25.90;62.40;;;;;;5091790;28;19961;-66
2023/10/16 02:25:47;;;;;;;;;;;25.70;63.30;;;;;;5108313;28;19958;-66
2023/10/16 02:28:25;;;;;;;;;;;25.70;62.90;;;;;;5108223;28;19914;-67
2023/10/16 02:30:51;;;;;;;;;;;25.70;62.90;;;;;;5109715;28;19912;-66
2023/10/16 02:33:37;;;;;;;;;;;25.50;61.50;;;;;;5108651;28;19923;-66
2023/10/16 02:36:04;;;;;;;;;;;25.40;61.80;;;;;;5104925;28;19919;-72
2023/10/16 02:38:30;;;;;;;;;;;26.20;60.60;;;;;;5111543;28;20052;-71
2023/10/16 02:41:04;;;;;;;;;;;27.10;60.10;;;;;;5111377;28;20006;-71
2023/10/16 02:43:31;;;;;;;;;;;28.10;59.10;;;;;;5111379;28;20454;-72
2023/10/16 02:46:01;;;;;;;;;;;29.00;57.70;;;;;;5111065;28;19912;-74
2023/10/16 02:48:28;;;;;;;;;;;29.60;56.30;;;;;;5111181;28;19923;-71
2023/10/16 02:50:56;;;;;;;;;;;29.80;56.10;;;;;;5110573;28;19919;-67
2023/10/16 02:53:27;;;;;;;;;;;29.30;55.80;;;;;;5095321;28;19919;-69
2023/10/16 02:55:57;;;;;;;;;;;30.20;55.40;;;;;;5095446;28;19961;-71
2023/10/16 02:58:26;;;;;;;;;;;30.40;53.10;;;;;;5095357;28;19968;-72
2023/10/16 03:01:06;;;;;;;;;;;30.80;53.30;;;;;;5095724;28;19908;-71
2023/10/16 03:03:33;;;;;;;;;;;31.50;52.40;;;;;;5115902;28;19919;-70
2023/10/16 03:05:59;;;;;;;;;;;31.40;51.50;;;;;;5116319;28;20394;-70
2023/10/16 03:08:29;;;;;;;;;;;31.10;51.70;;;;;;5106472;28;19919;-68
2023/10/16 03:10:59;;;;;;;;;;;31.30;51.70;;;;;;5113938;28;20290;-69
2023/10/16 03:13:26;;;;;;;;;;;32.20;51.10;;;;;;5114384;28;20420;-68
2023/10/16 03:16:05;;;;;;;;;;;33.20;49.90;;;;;;5110004;28;20482;-67
2023/10/16 03:18:32;;;;;;;;;;;32.80;49.80;;;;;;5107207;28;19966;-70
2023/10/16 03:21:45;;;;;;;;;;;32.80;50.60;;;;;;5112710;28;20257;-67
2023/10/16 03:23:47;;;;;;;;;;;33.50;49.70;;;;;;5089365;28;19964;-69
2023/10/16 03:26:41;;;;;;;;;;;33.10;49.30;;;;;;5110584;28;20390;-68
2023/10/16 03:29:05;;;;;;;;;;;32.70;49.00;;;;;;5094626;28;19915;-70
2023/10/16 03:31:36;;;;;;;;;;;32.10;48.60;;;;;;5100650;28;20056;-68
2023/10/16 03:34:03;;;;;;;;;;;30.50;49.10;;;;;;5105425;28;19912;-68
2023/10/16 03:36:29;;;;;;;;;;;30.10;49.70;;;;;;5101369;28;20390;-68
2023/10/16 03:38:57;;;;;;;;;;;30.70;48.80;;;;;;5102087;28;19924;-73
2023/10/16 03:43:58;;;;;;;;;;;30.90;48.80;;;;;;5094754;28;19915;-73
2023/10/16 03:46:26;;;;;;;;;;;29.80;49.40;;;;;;5104970;28;19911;-68
2023/10/16 03:48:54;;;;;;;;;;;29.00;50.00;;;;;;5114807;28;20299;-68
2023/10/16 03:51:21;;;;;;;;;;;28.60;50.90;;;;;;5096594;28;20349;-68
2023/10/16 03:53:52;;;;;;;;;;;27.80;51.00;;;;;;5115145;28;19908;-72
2023/10/16 03:56:20;;;;;;;;;;;27.00;51.90;;;;;;5105899;28;19912;-71
2023/10/16 03:58:46;;;;;;;;;;;26.20;53.20;;;;;;5093946;28;19920;-66
2023/10/16 04:01:24;;;;;;;;;;;25.60;65.40;;;;;;5093829;28;19939;-70
2023/10/16 04:03:56;;;;;;;;;;;23.50;75.20;;;;;;5095533;28;20331;-67
2023/10/16 04:06:24;;;;;;;;;;;21.60;89.20;;;;;;5076503;28;19912;-71
2023/10/16 04:08:52;;;;;;;;;;;20.40;97.30;;;;;;5101939;28;20361;-69
2023/10/16 04:11:20;;;;;;;;;;;20.00;99.90;;;;;;5095254;28;19916;-70
2023/10/16 04:13:52;;;;;;;;;;;21.30;99.90;;;;;;5111345;28;19912;-67
2023/10/16 04:19:52;;;;;;;;;;;25.80;88.50;;;;;;5106443;28;20288;-68
2023/10/16 04:21:51;;;;;;;;;;;27.30;76.10;;;;;;5092054;28;20336;-67
2023/10/16 04:29:46;;;;;;;;;;;23.20;77.60;;;;;;5094137;28;19908;-66
2023/10/16 04:34:54;;;;;;;;;;;21.20;82.30;;;;;;5108986;28;19994;-71
2023/10/16 04:45:25;;;;;;;;;;;20.10;91.80;;;;;;5107430;28;20052;-68
2023/10/16 04:58:38;;;;;;;;;;;18.80;90.30;;;;;;5104247;28;20007;-68
2023/10/16 05:04:13;;;;;;;;;;;18.30;91.20;;;;;;5112029;28;19923;-70
2023/10/16 05:11:33;;;;;;;;;;;17.90;96.70;;;;;;5112727;28;19952;-69
2023/10/16 06:14:20;;;;;;;;;;;18.40;74.40;;;;;;5033128;28;19972;-70
2023/10/16 06:16:50;;;;;;;;;;;18.50;71.00;;;;;;5074610;28;20261;-72
2023/10/16 06:19:19;;;;;;;;;;;18.50;70.70;;;;;;5104229;27;20590;-72
2023/10/16 06:21:47;;;;;;;;;;;18.60;70.80;;;;;;5092291;28;19952;-74
2023/10/16 06:24:25;;;;;;;;;;;18.60;71.50;;;;;;5103598;28;19912;-71
2023/10/16 06:26:55;;;;;;;;;;;18.80;71.80;;;;;;5082900;28;19916;-71
2023/10/16 06:29:34;;;;;;;;;;;18.90;70.10;;;;;;5095636;28;20368;-71
2023/10/16 06:32:18;;;;;;;;;;;19.40;70.60;;;;;;5101949;28;19914;-71
2023/10/16 06:34:47;;;;;;;;;;;21.20;67.80;;;;;;5098891;28;20013;-66
2023/10/16 06:37:17;;;;;;;;;;;23.20;62.70;;;;;;5104788;28;20054;-69
2023/10/16 06:39:54;;;;;;;;;;;24.30;59.20;;;;;;5098102;28;19919;-71
2023/10/16 06:42:21;;;;;;;;;;;24.80;57.70;;;;;;5082768;28;20376;-67
2023/10/16 06:44:54;;;;;;;;;;;25.60;57.70;;;;;;5111015;28;19919;-73
2023/10/16 06:47:34;;;;;;;;;;;25.20;56.50;;;;;;5101079;28;20015;-74
2023/10/16 06:50:01;;;;;;;;;;;24.20;57.20;;;;;;5103798;28;19912;-74
2023/10/16 06:52:29;;;;;;;;;;;24.30;58.10;;;;;;5104389;28;19915;-73
2023/10/16 06:54:56;;;;;;;;;;;24.80;56.50;;;;;;5119134;28;19918;-68
2023/10/16 06:57:25;;;;;;;;;;;25.30;55.20;;;;;;5119107;28;19908;-71
2023/10/16 06:59:55;;;;;;;;;;;25.40;55.20;;;;;;5111304;28;20410;-68
2023/10/16 07:02:22;;;;;;;;;;;25.70;54.90;;;;;;5103710;28;19951;-68
2023/10/16 07:04:48;;;;;;;;;;;25.80;54.90;;;;;;5095266;28;19935;-72
2023/10/16 07:07:15;;;;;;;;;;;25.50;55.80;;;;;;5110267;28;19914;-72
2023/10/16 07:09:48;;;;;;;;;;;25.40;57.70;;;;;;5106830;28;19990;-71
2023/10/16 07:12:18;;;;;;;;;;;25.00;58.70;;;;;;5109083;28;19991;-68
2023/10/16 07:14:57;;;;;;;;;;;24.10;60.70;;;;;;5109039;28;19954;-73
2023/10/16 07:17:28;;;;;;;;;;;23.20;63.00;;;;;;5108369;28;19912;-73
2023/10/16 07:19:58;;;;;;;;;;;22.30;65.90;;;;;;5111013;28;19912;-69
2023/10/16 07:22:32;;;;;;;;;;;21.60;69.00;;;;;;5086241;28;20386;-74
2023/10/16 07:25:09;;;;;;;;;;;20.90;71.00;;;;;;5094294;28;19927;-68
2023/10/16 07:27:38;;;;;;;;;;;20.40;71.90;;;;;;5090851;28;20331;-70
2023/10/16 07:30:21;;;;;;;;;;;19.70;72.20;;;;;;5097899;28;20318;-69
2023/10/16 07:32:51;;;;;;;;;;;19.30;74.80;;;;;;5099962;28;20340;-71
2023/10/16 07:35:18;;;;;;;;;;;19.00;74.80;;;;;;5099300;28;19919;-68
2023/10/16 07:37:54;;;;;;;;;;;18.70;75.90;;;;;;5110230;28;19986;-69
2023/10/16 07:40:21;;;;;;;;;;;18.50;76.90;;;;;;5113534;27;19916;-72
2023/10/16 07:42:48;;;;;;;;;;;18.40;78.30;;;;;;5092197;28;19920;-72
2023/10/16 07:45:15;;;;;;;;;;;18.40;76.60;;;;;;5113637;28;19911;-71
2023/10/16 07:47:46;;;;;;;;;;;18.30;76.80;;;;;;5107832;28;19920;-70
2023/10/16 07:50:13;;;;;;;;;;;18.10;77.30;;;;;;5111832;28;20170;-69
2023/10/16 07:52:42;;;;;;;;;;;18.00;77.50;;;;;;5113410;28;19935;-68
2023/10/16 07:55:18;;;;;;;;;;;18.00;78.40;;;;;;5117381;27;19927;-72
2023/10/16 07:57:45;;;;;;;;;;;17.90;78.60;;;;;;5112986;28;19927;-72
2023/10/16 08:00:15;;;;;;;;;;;17.90;78.80;;;;;;5112104;28;19914;-70
2023/10/16 08:02:47;;;;;;;;;;;17.70;78.00;;;;;;5113049;28;19911;-70
2023/10/16 08:05:15;;;;;;;;;;;17.70;78.20;;;;;;5111292;27;19911;-69
2023/10/16 08:07:48;;;;;;;;;;;17.60;79.10;;;;;;5101313;28;19916;-68
2023/10/16 08:13:13;;;;;;;;;;;17.50;77.90;;;;;;5072111;28;19912;-70
2023/10/16 08:15:51;;;;;;;;;;;17.50;78.80;;;;;;5097549;27;20330;-68
2023/10/16 08:18:19;;;;;;;;;;;17.50;77.70;;;;;;5093335;28;19932;-69
2023/10/16 08:21:05;;;;;;;;;;;17.50;77.80;;;;;;5102553;27;19923;-67
2023/10/16 08:23:35;;;;;;;;;;;17.50;79.00;;;;;;5099651;28;19916;-69
2023/10/16 08:26:14;;;;;;;;;;;17.60;78.90;;;;;;5098754;28;19923;-69
2023/10/16 08:28:47;;;;;;;;;;;17.60;78.20;;;;;;5093701;28;19912;-67
2023/10/16 08:31:24;;;;;;;;;;;17.50;78.30;;;;;;5106471;27;20317;-69
2023/10/16 08:33:51;;;;;;;;;;;17.50;78.90;;;;;;5102893;28;19919;-70
2023/10/16 08:36:18;;;;;;;;;;;17.40;79.20;;;;;;5116490;27;19907;-70
2023/10/16 08:38:55;;;;;;;;;;;17.40;79.60;;;;;;5116421;27;19959;-69
2023/10/16 08:41:29;;;;;;;;;;;17.40;79.80;;;;;;5084562;28;19908;-70
2023/10/16 08:44:03;;;;;;;;;;;17.40;80.00;;;;;;5102567;28;19916;-67
2023/10/16 08:46:31;;;;;;;;;;;17.40;80.70;;;;;;5104077;27;19995;-69
2023/10/16 08:48:59;;;;;;;;;;;17.40;80.90;;;;;;5092861;28;19920;-69
2023/10/16 08:51:28;;;;;;;;;;;17.30;81.70;;;;;;5107471;28;19911;-70
2023/10/16 08:53:59;;;;;;;;;;;17.30;81.70;;;;;;5113633;28;19980;-67
2023/10/16 08:56:26;;;;;;;;;;;17.20;82.10;;;;;;5107398;28;19919;-68
2023/10/16 08:58:55;;;;;;;;;;;16.90;83.70;;;;;;5087737;28;20372;-67
2023/10/16 09:01:23;;;;;;;;;;;16.60;84.20;;;;;;5111694;28;19912;-68
2023/10/16 09:03:54;;;;;;;;;;;16.30;84.50;;;;;;5105497;28;19912;-68
2023/10/16 09:06:24;;;;;;;;;;;16.10;85.50;;;;;;5102065;28;19911;-68
2023/10/16 09:08:52;;;;;;;;;;;16.00;86.70;;;;;;5100888;28;20054;-69
2023/10/16 09:11:22;;;;;;;;;;;15.90;89.30;;;;;;5096224;28;19964;-71
2023/10/16 09:13:51;;;;;;;;;;;15.80;91.50;;;;;;5101868;28;20024;-69
2023/10/16 09:16:24;;;;;;;;;;;15.70;94.10;;;;;;5098841;28;20318;-68
2023/10/16 09:18:52;;;;;;;;;;;15.50;97.00;;;;;;5096966;28;20356;-69
2023/10/16 09:21:27;;;;;;;;;;;15.20;99.10;;;;;;5108076;27;19912;-68
2023/10/16 09:24:02;;;;;;;;;;;14.90;99.90;;;;;;5111159;28;19912;-68
2023/10/16 09:26:32;;;;;;;;;;;14.70;99.90;;;;;;5108774;28;20003;-68
2023/10/16 09:29:04;;;;;;;;;;;14.60;99.90;;;;;;5112910;28;20295;-68
2023/10/16 09:31:31;;;;;;;;;;;14.60;99.90;;;;;;5111998;28;19922;-66
2023/10/16 09:33:58;;;;;;;;;;;14.50;99.90;;;;;;5111901;28;20269;-68
2023/10/16 09:36:29;;;;;;;;;;;14.50;99.90;;;;;;5110685;28;19912;-69
2023/10/16 09:38:59;;;;;;;;;;;14.50;99.90;;;;;;5112892;28;20357;-68
2023/10/16 09:43:56;;;;;;;;;;;14.50;99.90;;;;;;5107872;28;19912;-67
2023/10/16 09:49:14;;;;;;;;;;;14.70;99.90;;;;;;5109859;28;20014;-68
2023/10/16 09:51:44;;;;;;;;;;;14.70;99.90;;;;;;5125130;27;19919;-67
2023/10/16 09:54:14;;;;;;;;;;;14.80;99.90;;;;;;5109719;27;19912;-67
2023/10/16 09:56:44;;;;;;;;;;;14.80;99.90;;;;;;5101250;28;19912;-69
2023/10/16 09:59:19;;;;;;;;;;;14.80;99.90;;;;;;5104969;28;19920;-67
2023/10/16 10:01:46;;;;;;;;;;;14.70;99.90;;;;;;5094782;28;19923;-70
2023/10/16 10:04:17;;;;;;;;;;;14.60;99.90;;;;;;5103278;28;20261;-70
2023/10/16 10:06:46;;;;;;;;;;;14.70;99.90;;;;;;5112172;28;19908;-68
2023/10/16 10:12:07;;;;;;;;;;;14.60;99.90;;;;;;5112600;28;19912;-70
2023/10/16 10:14:48;;;;;;;;;;;14.50;99.90;;;;;;5107011;28;19912;-70
2023/10/16 10:17:25;;;;;;;;;;;14.50;99.90;;;;;;5113100;28;20280;-70
2023/10/16 10:19:55;;;;;;;;;;;14.60;99.90;;;;;;5110044;28;19923;-67
2023/10/16 10:22:28;;;;;;;;;;;14.50;99.90;;;;;;5106275;28;19912;-69
2023/10/16 10:25:24;;;;;;;;;;;14.50;99.90;;;;;;5108153;28;19953;-68
2023/10/16 10:27:55;;;;;;;;;;;14.50;99.90;;;;;;5092370;28;19961;-67
2023/10/16 10:30:26;;;;;;;;;;;14.60;99.90;;;;;;5109659;28;19947;-69
2023/10/16 10:32:58;;;;;;;;;;;14.60;99.90;;;;;;5110809;28;19912;-70
2023/10/16 10:35:47;;;;;;;;;;;14.60;99.90;;;;;;5093272;28;20366;-69
2023/10/16 10:38:29;;;;;;;;;;;14.60;99.90;;;;;;5107963;28;19927;-70
2023/10/16 10:41:12;;;;;;;;;;;14.60;99.90;;;;;;5093268;28;19908;-68
2023/10/16 10:43:58;;;;;;;;;;;14.60;99.90;;;;;;5108756;28;19919;-69
2023/10/16 10:46:28;;;;;;;;;;;14.60;99.90;;;;;;5110528;28;19942;-68
2023/10/16 10:48:56;;;;;;;;;;;14.60;99.90;;;;;;5108602;28;20319;-68
2023/10/16 10:51:23;;;;;;;;;;;14.50;99.90;;;;;;5110759;28;19912;-69
2023/10/16 10:53:53;;;;;;;;;;;14.60;99.90;;;;;;5110407;28;21008;-69
2023/10/16 10:56:23;;;;;;;;;;;14.60;99.90;;;;;;5111634;28;19912;-69
2023/10/16 10:58:50;;;;;;;;;;;14.60;99.90;;;;;;5111726;28;19923;-69
2023/10/16 11:01:18;;;;;;;;;;;14.70;99.90;;;;;;5111088;28;20249;-68
2023/10/16 11:03:46;;;;;;;;;;;14.50;99.90;;;;;;5110329;28;19922;-68
2023/10/16 11:06:16;;;;;;;;;;;14.50;99.90;;;;;;5111085;28;20310;-69
2023/10/16 11:08:45;;;;;;;;;;;14.40;99.90;;;;;;5109981;28;19908;-68
2023/10/16 11:11:12;;;;;;;;;;;14.40;99.90;;;;;;5111059;28;19914;-70
2023/10/16 11:13:49;;;;;;;;;;;14.40;99.90;;;;;;5113611;28;19931;-69
2023/10/16 11:16:16;;;;;;;;;;;14.30;99.90;;;;;;5112730;28;19916;-69
2023/10/16 11:18:59;;;;;;;;;;;14.30;99.90;;;;;;5114384;28;19920;-71
2023/10/16 11:21:25;;;;;;;;;;;14.20;99.90;;;;;;5114336;28;19908;-70
2023/10/16 11:23:55;;;;;;;;;;;14.20;99.90;;;;;;5112659;28;19982;-68
2023/10/16 11:26:25;;;;;;;;;;;14.20;99.90;;;;;;5114935;28;20448;-68
2023/10/16 11:28:52;;;;;;;;;;;14.30;99.90;;;;;;5115081;28;19915;-67
2023/10/16 11:31:21;;;;;;;;;;;14.20;99.90;;;;;;5115274;28;20339;-67
2023/10/16 11:34:02;;;;;;;;;;;14.10;99.90;;;;;;5114574;28;20322;-68
2023/10/16 11:36:30;;;;;;;;;;;14.20;99.90;;;;;;5114413;28;21256;-67
2023/10/16 11:39:07;;;;;;;;;;;14.10;99.90;;;;;;5112372;28;19961;-69
2023/10/16 11:41:34;;;;;;;;;;;14.00;99.90;;;;;;5114914;28;19908;-68
2023/10/16 11:44:14;;;;;;;;;;;13.90;99.90;;;;;;5110681;28;19918;-69
2023/10/16 11:46:44;;;;;;;;;;;13.80;99.90;;;;;;5113014;28;19907;-71
2023/10/16 11:49:21;;;;;;;;;;;13.80;99.90;;;;;;5113954;28;19920;-69
2023/10/16 11:51:49;;;;;;;;;;;13.80;99.90;;;;;;5114697;28;19915;-70
2023/10/16 11:54:23;;;;;;;;;;;13.80;99.90;;;;;;5113667;28;19955;-70
2023/10/16 11:56:53;;;;;;;;;;;13.70;99.90;;;;;;5113646;28;20386;-69
2023/10/16 11:59:21;;;;;;;;;;;13.70;99.90;;;;;;5114195;28;20291;-68
2023/10/16 12:01:51;;;;;;;;;;;13.70;99.90;;;;;;5096611;28;19908;-68
2023/10/16 12:04:19;;;;;;;;;;;13.60;99.90;;;;;;5113865;28;19912;-69
2023/10/16 12:06:48;;;;;;;;;;;13.50;99.90;;;;;;5114700;28;20383;-68
2023/10/16 12:09:25;;;;;;;;;;;13.50;99.90;;;;;;5111402;28;19915;-68
2023/10/16 12:11:54;;;;;;;;;;;13.50;99.90;;;;;;5114033;28;20328;-70
2023/10/16 12:14:22;;;;;;;;;;;13.50;99.90;;;;;;5112105;28;20284;-70
2023/10/16 12:16:48;;;;;;;;;;;13.40;99.90;;;;;;5114255;28;19908;-72
2023/10/16 12:19:16;;;;;;;;;;;13.40;99.90;;;;;;5111808;28;19940;-70
2023/10/16 12:21:52;;;;;;;;;;;13.50;99.90;;;;;;5114230;28;19908;-68
2023/10/16 12:24:20;;;;;;;;;;;13.40;99.90;;;;;;5112290;28;20049;-68
2023/10/16 12:26:47;;;;;;;;;;;13.40;99.90;;;;;;5113358;28;19938;-71
2023/10/16 12:29:13;;;;;;;;;;;13.40;99.90;;;;;;5114540;28;20261;-68
2023/10/16 12:31:40;;;;;;;;;;;13.30;99.90;;;;;;5115278;28;19908;-69
2023/10/16 12:34:11;;;;;;;;;;;13.30;99.90;;;;;;5079687;28;20292;-68
2023/10/16 12:36:43;;;;;;;;;;;13.30;99.90;;;;;;5094534;28;19908;-68
2023/10/16 12:39:25;;;;;;;;;;;13.20;99.90;;;;;;5094552;28;19916;-67
2023/10/16 12:41:56;;;;;;;;;;;13.30;99.90;;;;;;5114276;28;19912;-70
2023/10/16 12:44:25;;;;;;;;;;;13.30;99.90;;;;;;5095383;28;19912;-68
2023/10/16 12:46:53;;;;;;;;;;;13.30;99.90;;;;;;5094668;28;19916;-71
2023/10/16 12:49:20;;;;;;;;;;;13.20;99.90;;;;;;5094643;28;20315;-67
2023/10/16 12:51:49;;;;;;;;;;;13.30;99.90;;;;;;5105751;28;19914;-70
2023/10/16 12:54:16;;;;;;;;;;;13.30;99.90;;;;;;5096470;28;19918;-69
2023/10/16 12:56:48;;;;;;;;;;;13.20;99.90;;;;;;5094531;28;19917;-68
2023/10/16 12:59:14;;;;;;;;;;;13.20;99.90;;;;;;5109261;28;20524;-68
2023/10/16 13:01:41;;;;;;;;;;;13.20;99.90;;;;;;5114630;28;20282;-68
2023/10/16 13:04:13;;;;;;;;;;;13.10;99.90;;;;;;5100550;28;19907;-69
2023/10/16 13:06:40;;;;;;;;;;;13.00;99.90;;;;;;5112826;28;19918;-70
2023/10/16 13:09:14;;;;;;;;;;;13.00;99.90;;;;;;5114665;28;19999;-67
2023/10/16 13:11:41;;;;;;;;;;;12.90;99.90;;;;;;5114126;28;19914;-69
2023/10/16 13:14:07;;;;;;;;;;;13.00;99.90;;;;;;5114686;28;20421;-67
2023/10/16 13:16:34;;;;;;;;;;;13.00;99.90;;;;;;5108368;28;19908;-70
2023/10/16 13:19:02;;;;;;;;;;;13.00;99.90;;;;;;5094052;28;19920;-70
2023/10/16 13:21:35;;;;;;;;;;;13.10;99.90;;;;;;5093839;28;20369;-70
2023/10/16 13:24:09;;;;;;;;;;;13.10;99.90;;;;;;5075975;28;19931;-69
2023/10/16 13:26:36;;;;;;;;;;;13.00;99.90;;;;;;5099783;28;20462;-71
2023/10/16 13:29:07;;;;;;;;;;;13.00;99.90;;;;;;5114468;28;20404;-71
2023/10/16 13:31:35;;;;;;;;;;;13.00;99.90;;;;;;5113959;28;20049;-69
2023/10/16 13:34:05;;;;;;;;;;;12.90;99.90;;;;;;5113808;28;19912;-69
2023/10/16 13:36:35;;;;;;;;;;;12.90;99.90;;;;;;5108511;28;19908;-70
2023/10/16 13:39:08;;;;;;;;;;;12.90;99.90;;;;;;5075606;28;20410;-69
2023/10/16 13:41:35;;;;;;;;;;;12.90;99.90;;;;;;5093398;28;19953;-68
2023/10/16 13:44:02;;;;;;;;;;;12.80;99.90;;;;;;5093663;28;20770;-70
2023/10/16 13:46:29;;;;;;;;;;;12.80;99.90;;;;;;5097626;28;19908;-69
2023/10/16 13:48:57;;;;;;;;;;;12.80;99.90;;;;;;5113679;28;20014;-69
2023/10/16 13:51:24;;;;;;;;;;;12.70;99.90;;;;;;5113762;28;19933;-68
2023/10/16 13:53:51;;;;;;;;;;;12.70;99.90;;;;;;5113602;28;20384;-69
2023/10/16 13:56:18;;;;;;;;;;;12.70;99.10;;;;;;5099436;28;19919;-67
2023/10/16 13:58:45;;;;;;;;;;;12.60;98.30;;;;;;5113572;28;19941;-68
2023/10/16 14:01:14;;;;;;;;;;;12.70;98.70;;;;;;5113337;28;19908;-66
2023/10/16 14:03:42;;;;;;;;;;;12.60;99.00;;;;;;5113107;28;19958;-67
2023/10/16 14:06:12;;;;;;;;;;;12.70;97.90;;;;;;5111127;28;19908;-67
2023/10/16 14:08:41;;;;;;;;;;;12.60;98.30;;;;;;5092575;28;19912;-68
2023/10/16 14:11:13;;;;;;;;;;;12.60;98.30;;;;;;5092453;28;19912;-69
2023/10/16 14:13:40;;;;;;;;;;;12.60;98.40;;;;;;5074753;28;20006;-70
2023/10/16 14:16:11;;;;;;;;;;;12.50;97.50;;;;;;5093835;28;19968;-69
2023/10/16 14:18:43;;;;;;;;;;;12.50;97.60;;;;;;5113023;28;19920;-69
2023/10/16 14:21:11;;;;;;;;;;;12.50;98.00;;;;;;5112471;28;19908;-68
2023/10/16 14:23:42;;;;;;;;;;;12.40;98.30;;;;;;5113029;28;20368;-70
2023/10/16 14:26:11;;;;;;;;;;;12.40;98.30;;;;;;5111715;28;19912;-69
2023/10/16 14:28:44;;;;;;;;;;;12.50;98.60;;;;;;5112691;28;19912;-70
2023/10/16 14:31:15;;;;;;;;;;;12.50;99.10;;;;;;5112045;28;19956;-69
2023/10/16 14:33:42;;;;;;;;;;;12.50;99.00;;;;;;5111920;28;19961;-70
2023/10/16 14:36:16;;;;;;;;;;;12.40;98.90;;;;;;5111036;28;20376;-69
2023/10/16 14:38:43;;;;;;;;;;;12.40;99.10;;;;;;5107185;28;19920;-71
2023/10/16 14:41:15;;;;;;;;;;;12.30;99.20;;;;;;5113082;28;19957;-70
2023/10/16 14:43:45;;;;;;;;;;;12.30;99.50;;;;;;5113065;28;19955;-71
2023/10/16 14:46:12;;;;;;;;;;;12.30;99.90;;;;;;5108163;28;19984;-71
2023/10/16 14:48:42;;;;;;;;;;;12.20;99.90;;;;;;5092418;28;20372;-70
2023/10/16 14:51:12;;;;;;;;;;;12.10;99.90;;;;;;5092175;28;19908;-72
2023/10/16 14:53:39;;;;;;;;;;;12.10;99.90;;;;;;5092699;28;19908;-69
2023/10/16 14:56:10;;;;;;;;;;;12.20;99.90;;;;;;5095661;28;19916;-68
2023/10/16 14:58:38;;;;;;;;;;;12.20;99.90;;;;;;5112801;28;19920;-69
2023/10/16 15:01:17;;;;;;;;;;;12.10;99.90;;;;;;5112360;28;19908;-69
2023/10/16 15:03:43;;;;;;;;;;;12.10;99.90;;;;;;5113013;28;19994;-69
2023/10/16 15:06:12;;;;;;;;;;;12.10;99.90;;;;;;5108397;28;19919;-70
2023/10/16 15:08:41;;;;;;;;;;;12.10;99.90;;;;;;5092352;28;19955;-69
2023/10/16 15:11:10;;;;;;;;;;;12.00;99.90;;;;;;5092751;28;19930;-70
2023/10/16 15:13:37;;;;;;;;;;;12.00;99.90;;;;;;5092367;28;20007;-70
2023/10/16 15:16:07;;;;;;;;;;;12.00;99.90;;;;;;5091773;28;20276;-69
2023/10/16 15:18:34;;;;;;;;;;;11.90;99.90;;;;;;5091689;28;19916;-69
2023/10/16 15:21:01;;;;;;;;;;;11.90;99.90;;;;;;5092410;28;19908;-70
2023/10/16 15:23:31;;;;;;;;;;;12.00;99.90;;;;;;5112452;28;19908;-70
2023/10/16 15:25:58;;;;;;;;;;;11.90;99.90;;;;;;5111041;28;20272;-69
2023/10/16 15:28:25;;;;;;;;;;;11.80;99.90;;;;;;5091832;28;19912;-72
2023/10/16 15:30:53;;;;;;;;;;;11.80;99.60;;;;;;5092176;28;19915;-69
2023/10/16 15:33:26;;;;;;;;;;;11.80;99.50;;;;;;5111032;28;19916;-71
2023/10/16 15:35:53;;;;;;;;;;;11.80;99.60;;;;;;5112344;28;19930;-69
2023/10/16 15:38:23;;;;;;;;;;;11.90;99.50;;;;;;5112659;28;20076;-69
2023/10/16 15:40:53;;;;;;;;;;;11.80;98.50;;;;;;5112174;28;19908;-70
2023/10/16 15:43:20;;;;;;;;;;;11.80;97.80;;;;;;5111149;28;19912;-71
2023/10/16 15:45:47;;;;;;;;;;;11.80;97.50;;;;;;5112663;28;19973;-70
2023/10/16 15:48:13;;;;;;;;;;;11.80;97.40;;;;;;5112580;28;19919;-73
2023/10/16 15:50:40;;;;;;;;;;;11.80;97.10;;;;;;5112436;28;20275;-68
2023/10/16 15:53:08;;;;;;;;;;;11.80;97.20;;;;;;5094670;28;19916;-69
2023/10/16 15:55:35;;;;;;;;;;;11.80;97.20;;;;;;5092188;28;20277;-72
2023/10/16 15:58:02;;;;;;;;;;;11.80;97.50;;;;;;5092719;28;19959;-70
2023/10/16 16:00:34;;;;;;;;;;;11.80;97.10;;;;;;5095967;28;19908;-69
2023/10/16 16:03:01;;;;;;;;;;;11.90;97.30;;;;;;5109514;28;20249;-67
2023/10/16 16:05:31;;;;;;;;;;;11.70;97.00;;;;;;5114938;28;19911;-70
2023/10/16 16:08:00;;;;;;;;;;;11.80;97.60;;;;;;5114032;28;19965;-71
2023/10/16 16:10:31;;;;;;;;;;;11.80;96.90;;;;;;5115773;28;20412;-68
2023/10/16 16:13:01;;;;;;;;;;;11.80;97.60;;;;;;5115452;28;19908;-70
2023/10/16 16:15:28;;;;;;;;;;;11.80;97.50;;;;;;5095200;28;20384;-68
2023/10/16 16:18:00;;;;;;;;;;;11.80;97.50;;;;;;5095051;28;20324;-70
2023/10/16 16:20:29;;;;;;;;;;;11.80;97.80;;;;;;5095058;28;19908;-69
2023/10/16 16:22:56;;;;;;;;;;;11.70;97.50;;;;;;5112325;28;19911;-70
2023/10/16 16:25:26;;;;;;;;;;;11.70;97.60;;;;;;5095214;28;20361;-70
2023/10/16 16:27:53;;;;;;;;;;;11.80;97.70;;;;;;5094903;28;20003;-68